Time,TemperatureF,DewpointF,PressureIn,WindDirection,WindDirectionDegrees,WindSpeedMPH,WindSpeedGustMPH,Humidity,HourlyPrecipIn,Conditions,Clouds,dailyrainin,SoftwareType,DateUTC
2013-04-13 00:00:00,64.9,64.3,29.76,SW,225,3.5,3.5,98,0.00,CLR,,1.01,WeatherDisplay:10.37,2013-04-13 04:00:00,
2013-04-13 00:05:00,64.9,64.3,29.77,WSW,248,3.5,3.5,98,0.00,RA,,0.00,WeatherDisplay:10.37,2013-04-13 04:05:00,
2013-04-13 00:10:00,64.9,64.3,29.77,SW,225,4.6,4.6,98,0.00,CLR,,0.00,WeatherDisplay:10.37,2013-04-13 04:10:00,
2013-04-13 00:15:00,65.1,64.5,29.78,WSW,248,5.8,5.8,98,0.00,CLR,,0.00,WeatherDisplay:10.37,2013-04-13 04:15:00,
2013-04-13 00:20:00,65.1,64.5,29.78,WSW,248,4.6,4.6,98,0.00,CLR,,0.00,WeatherDisplay:10.37,2013-04-13 04:20:00,
2013-04-13 00:25:00,64.9,64.3,29.78,ESE,112,3.8,3.8,98,0.00,CLR,,0.00,WeatherDisplay:10.37,2013-04-13 04:25:00,
2013-04-13 00:30:00,64.9,64.3,29.77,South,180,4.6,4.6,98,0.00,CLR,,0.00,WeatherDisplay:10.37,2013-04-13 04:30:00,
2013-04-13 00:35:00,64.9,64.3,29.77,SW,225,4.6,4.6,98,0.00,CLR,,0.00,WeatherDisplay:10.37,2013-04-13 04:35:00,
2013-04-13 00:40:00,64.9,64.3,29.78,WSW,248,3.5,3.5,98,0.00,CLR,,0.00,WeatherDisplay:10.37,2013-04-13 04:40:00,
2013-04-13 00:45:00,64.8,64.2,29.78,SW,225,5.8,5.8,98,0.00,CLR,,0.00,WeatherDisplay:10.37,2013-04-13 04:45:00,
2013-04-13 00:50:00,64.6,64.0,29.78,SSW,202,2.3,2.3,98,0.00,CLR,,0.00,WeatherDisplay:10.37,2013-04-13 04:50:00,
2013-04-13 00:55:00,64.4,63.8,29.78,SW,225,5.8,5.8,98,0.00,CLR,,0.00,WeatherDisplay:10.37,2013-04-13 04:55:00,
2013-04-13 01:00:00,64.4,63.8,29.78,SW,225,4.6,4.6,98,0.00,CLR,,0.00,WeatherDisplay:10.37,2013-04-13 05:00:00,
2013-04-13 01:05:00,64.4,63.8,29.78,WSW,248,6.5,6.5,98,0.00,CLR,,0.00,WeatherDisplay:10.37,2013-04-13 05:05:00,
2013-04-13 01:10:00,64.2,63.6,29.78,West,270,6.9,6.9,98,0.00,CLR,,0.00,WeatherDisplay:10.37,2013-04-13 05:10:00,
2013-04-13 01:15:00,64.0,63.4,29.78,West,270,5.6,5.6,98,0.00,CLR,,0.00,WeatherDisplay:10.37,2013-04-13 05:15:00,
2013-04-13 01:20:00,63.9,63.3,29.78,South,180,5.6,5.6,98,0.00,CLR,,0.00,WeatherDisplay:10.37,2013-04-13 05:20:00,
2013-04-13 01:25:00,63.9,63.3,29.78,SE,135,4.7,4.7,98,0.00,CLR,,0.00,WeatherDisplay:10.37,2013-04-13 05:25:00,
2013-04-13 01:30:00,63.9,63.3,29.78,SW,225,3.8,3.8,98,0.00,CLR,,0.00,WeatherDisplay:10.37,2013-04-13 05:30:00,
2013-04-13 01:36:00,63.9,63.3,29.78,SW,225,5.8,5.8,98,0.00,CLR,,0.00,WeatherDisplay:10.37,2013-04-13 05:36:00,
2013-04-13 01:41:00,63.9,63.3,29.78,SW,225,3.5,3.5,98,0.00,CLR,,0.00,WeatherDisplay:10.37,2013-04-13 05:41:00,
2013-04-13 01:46:00,63.9,63.3,29.78,WSW,248,3.5,3.5,98,0.00,CLR,,0.00,WeatherDisplay:10.37,2013-04-13 05:46:00,
2013-04-13 01:51:00,63.9,63.3,29.78,WSW,248,4.6,4.6,98,0.00,CLR,,0.00,WeatherDisplay:10.37,2013-04-13 05:51:00,
2013-04-13 01:56:00,63.9,63.3,29.78,SW,225,3.8,3.8,98,0.00,CLR,,0.00,WeatherDisplay:10.37,2013-04-13 05:56:00,
2013-04-13 02:01:00,63.9,63.3,29.78,WSW,248,3.5,3.5,98,0.00,CLR,,0.00,WeatherDisplay:10.37,2013-04-13 06:01:00,
2013-04-13 02:06:00,63.9,63.3,29.78,SW,225,2.3,2.3,98,0.00,CLR,,0.00,WeatherDisplay:10.37,2013-04-13 06:06:00,
2013-04-13 02:11:00,63.9,63.3,29.78,SW,225,3.5,3.5,98,0.00,CLR,,0.00,WeatherDisplay:10.37,2013-04-13 06:11:00,
2013-04-13 02:16:00,63.9,63.3,29.78,South,180,3.5,3.5,98,0.00,CLR,,0.00,WeatherDisplay:10.37,2013-04-13 06:16:00,
2013-04-13 02:21:00,63.9,63.3,29.78,SW,225,3.5,3.5,98,0.00,CLR,,0.00,WeatherDisplay:10.37,2013-04-13 06:21:00,
2013-04-13 02:26:00,63.7,63.1,29.78,WSW,248,3.5,3.5,98,0.00,CLR,,0.00,WeatherDisplay:10.37,2013-04-13 06:26:00,
2013-04-13 02:31:00,63.7,63.1,29.77,SW,225,3.5,3.5,98,0.00,CLR,,0.00,WeatherDisplay:10.37,2013-04-13 06:31:00,
2013-04-13 02:36:00,63.7,63.1,29.77,SW,225,3.5,0.0,98,0.00,CLR,,0.00,WeatherDisplay:10.37,2013-04-13 06:36:00,
2013-04-13 02:41:00,63.7,63.1,29.77,WSW,248,3.8,3.8,98,0.00,CLR,,0.00,WeatherDisplay:10.37,2013-04-13 06:41:00,
2013-04-13 02:46:00,63.7,63.1,29.77,WSW,248,0.0,0.0,98,0.00,CLR,,0.00,WeatherDisplay:10.37,2013-04-13 06:46:00,
2013-04-13 02:51:00,63.5,62.9,29.77,SSW,202,0.0,0.0,98,0.00,CLR,,0.00,WeatherDisplay:10.37,2013-04-13 06:51:00,
2013-04-13 02:56:00,63.5,62.9,29.77,SSW,202,0.0,0.0,98,0.00,CLR,,0.00,WeatherDisplay:10.37,2013-04-13 06:56:00,
2013-04-13 03:02:00,63.3,62.7,29.77,SSW,202,0.0,0.0,98,0.00,CLR,,0.00,WeatherDisplay:10.37,2013-04-13 07:02:00,
2013-04-13 03:07:00,63.3,62.7,29.77,SSW,202,0.0,0.0,98,0.00,CLR,,0.00,WeatherDisplay:10.37,2013-04-13 07:07:00,
2013-04-13 03:12:00,63.3,62.7,29.77,South,180,0.0,0.0,98,0.00,CLR,,0.00,WeatherDisplay:10.37,2013-04-13 07:12:00,
2013-04-13 03:17:00,63.1,62.5,29.77,SSW,202,0.0,0.0,98,0.00,CLR,,0.00,WeatherDisplay:10.37,2013-04-13 07:17:00,
2013-04-13 03:22:00,63.0,62.4,29.77,NW,315,0.0,0.0,98,0.00,CLR,,0.00,WeatherDisplay:10.37,2013-04-13 07:22:00,
2013-04-13 03:27:00,63.0,62.4,29.77,NW,315,0.0,0.0,98,0.00,CLR,,0.00,WeatherDisplay:10.37,2013-04-13 07:27:00,
2013-04-13 03:32:00,62.8,62.2,29.77,NW,315,0.0,0.0,98,0.00,CLR,,0.00,WeatherDisplay:10.37,2013-04-13 07:32:00,
2013-04-13 03:37:00,62.6,62.0,29.77,NW,315,0.0,0.0,98,0.00,CLR,,0.00,WeatherDisplay:10.37,2013-04-13 07:37:00,
2013-04-13 03:43:00,62.6,62.0,29.78,NW,315,0.0,0.0,98,0.00,CLR,,0.00,WeatherDisplay:10.37,2013-04-13 07:43:00,
2013-04-13 03:48:00,62.4,61.8,29.78,North,360,0.0,0.0,98,0.00,CLR,,0.00,WeatherDisplay:10.37,2013-04-13 07:48:00,
2013-04-13 03:53:00,62.6,62.0,29.79,North,360,0.0,0.0,98,0.00,CLR,,0.00,WeatherDisplay:10.37,2013-04-13 07:53:00,
2013-04-13 03:59:00,62.6,62.0,29.79,North,360,0.0,0.0,98,0.00,CLR,,0.00,WeatherDisplay:10.37,2013-04-13 07:59:00,
2013-04-13 04:05:00,62.6,62.0,29.79,North,360,0.0,0.0,98,0.00,CLR,,0.00,WeatherDisplay:10.37,2013-04-13 08:05:00,
2013-04-13 04:10:00,62.8,62.2,29.79,North,360,0.0,0.0,98,0.00,CLR,,0.00,WeatherDisplay:10.37,2013-04-13 08:10:00,
2013-04-13 04:15:00,62.8,62.2,29.79,North,360,0.0,0.0,98,0.00,CLR,,0.00,WeatherDisplay:10.37,2013-04-13 08:15:00,
2013-04-13 04:22:00,63.0,62.4,29.79,North,360,0.0,0.0,98,0.00,CLR,,0.00,WeatherDisplay:10.37,2013-04-13 08:22:00,
2013-04-13 04:27:00,62.8,62.2,29.79,NW,315,0.0,0.0,98,0.00,CLR,,0.00,WeatherDisplay:10.37,2013-04-13 08:27:00,
2013-04-13 04:32:00,62.6,62.0,29.79,NW,315,0.0,0.0,98,0.00,CLR,,0.00,WeatherDisplay:10.37,2013-04-13 08:32:00,
2013-04-13 04:37:00,62.6,62.0,29.79,NW,315,0.0,0.0,98,0.00,CLR,,0.00,WeatherDisplay:10.37,2013-04-13 08:37:00,
2013-04-13 04:42:00,62.1,61.5,29.80,NW,315,0.0,0.0,98,0.00,CLR,,0.00,WeatherDisplay:10.37,2013-04-13 08:42:00,
2013-04-13 04:47:00,61.9,61.3,29.80,NW,315,0.0,0.0,98,0.00,CLR,,0.00,WeatherDisplay:10.37,2013-04-13 08:47:00,
2013-04-13 04:52:00,61.5,60.9,29.80,NW,315,0.0,0.0,98,0.00,CLR,,0.00,WeatherDisplay:10.37,2013-04-13 08:52:00,
2013-04-13 04:58:00,61.3,60.7,29.80,NW,315,0.0,0.0,98,0.00,CLR,,0.00,WeatherDisplay:10.37,2013-04-13 08:58:00,
2013-04-13 05:03:00,61.3,60.7,29.81,NW,315,0.0,0.0,98,0.00,CLR,,0.00,WeatherDisplay:10.37,2013-04-13 09:03:00,
2013-04-13 05:08:00,61.3,60.7,29.81,NW,315,0.0,0.0,98,0.00,CLR,,0.00,WeatherDisplay:10.37,2013-04-13 09:08:00,
2013-04-13 05:13:00,61.5,60.9,29.81,NW,315,0.0,0.0,98,0.00,CLR,,0.00,WeatherDisplay:10.37,2013-04-13 09:13:00,
2013-04-13 05:18:00,61.5,60.9,29.82,NW,315,0.0,0.0,98,0.00,CLR,,0.00,WeatherDisplay:10.37,2013-04-13 09:18:00,
2013-04-13 05:23:00,61.7,61.1,29.82,NW,315,0.0,0.0,98,0.00,CLR,,0.00,WeatherDisplay:10.37,2013-04-13 09:23:00,
2013-04-13 05:28:00,61.7,61.1,29.83,NW,315,0.0,0.0,98,0.00,CLR,,0.00,WeatherDisplay:10.37,2013-04-13 09:28:00,
2013-04-13 05:33:00,61.7,61.1,29.83,NW,315,0.0,0.0,98,0.00,CLR,,0.00,WeatherDisplay:10.37,2013-04-13 09:33:00,
2013-04-13 05:38:00,61.3,60.7,29.83,NW,315,0.0,0.0,98,0.00,CLR,,0.00,WeatherDisplay:10.37,2013-04-13 09:38:00,
2013-04-13 05:43:00,61.2,60.6,29.83,NW,315,0.0,0.0,98,0.00,CLR,,0.00,WeatherDisplay:10.37,2013-04-13 09:43:00,
2013-04-13 05:51:00,61.2,60.6,29.84,NW,315,0.0,0.0,98,0.00,CLR,,0.00,WeatherDisplay:10.37,2013-04-13 09:51:00,
2013-04-13 05:56:00,61.0,60.4,29.84,NW,315,0.0,0.0,98,0.00,CLR,,0.00,WeatherDisplay:10.37,2013-04-13 09:56:00,
2013-04-13 06:02:00,60.8,60.2,29.84,NW,315,0.0,0.0,98,0.00,CLR,,0.00,WeatherDisplay:10.37,2013-04-13 10:02:00,
2013-04-13 06:07:00,60.8,60.2,29.84,NW,315,0.0,0.0,98,0.00,CLR,,0.00,WeatherDisplay:10.37,2013-04-13 10:07:00,
2013-04-13 06:12:00,60.6,60.0,29.84,NNW,338,3.8,4.0,98,0.00,CLR,,0.00,WeatherDisplay:10.37,2013-04-13 10:12:00,
2013-04-13 06:18:00,60.3,59.7,29.85,WNW,292,3.5,3.5,98,0.00,CLR,,0.00,WeatherDisplay:10.37,2013-04-13 10:18:00,
2013-04-13 06:23:00,59.7,59.1,29.85,North,360,4.6,4.6,98,0.00,CLR,,0.00,WeatherDisplay:10.37,2013-04-13 10:23:00,
2013-04-13 06:28:00,58.6,58.0,29.86,WNW,292,4.7,4.7,98,0.00,CLR,,0.00,WeatherDisplay:10.37,2013-04-13 10:28:00,
2013-04-13 06:34:00,58.1,57.5,29.86,NW,315,0.0,0.0,98,0.00,CLR,,0.00,WeatherDisplay:10.37,2013-04-13 10:34:00,
2013-04-13 06:39:00,57.9,57.3,29.86,NNW,338,3.8,3.8,98,0.00,CLR,,0.00,WeatherDisplay:10.37,2013-04-13 10:39:00,
2013-04-13 06:45:00,58.1,57.5,29.86,NW,315,3.5,3.5,98,0.00,CLR,,0.00,WeatherDisplay:10.37,2013-04-13 10:45:00,
2013-04-13 06:51:00,58.5,55.0,29.87,NW,315,5.8,5.8,88,0.00,CLR,,0.00,WeatherDisplay:10.37,2013-04-13 10:51:00,
2013-04-13 06:56:00,58.5,53.7,29.87,North,360,5.8,5.8,84,0.00,CLR,,0.00,WeatherDisplay:10.37,2013-04-13 10:56:00,
2013-04-13 07:02:00,58.6,52.8,29.87,NW,315,4.7,4.7,81,0.00,CLR,,0.00,WeatherDisplay:10.37,2013-04-13 11:02:00,
2013-04-13 07:08:00,58.8,52.6,29.87,NW,315,6.9,6.9,80,0.00,CLR,,0.00,WeatherDisplay:10.37,2013-04-13 11:08:00,
2013-04-13 07:13:00,59.0,52.1,29.87,NE,45,6.9,6.9,78,0.00,CLR,,0.00,WeatherDisplay:10.37,2013-04-13 11:13:00,
2013-04-13 07:20:00,59.0,51.4,29.88,NNE,22,11.5,11.5,76,0.00,CLR,,0.00,WeatherDisplay:10.37,2013-04-13 11:20:00,
2013-04-13 07:25:00,59.4,51.5,29.88,North,360,6.9,6.9,75,0.00,CLR,,0.00,WeatherDisplay:10.37,2013-04-13 11:25:00,
2013-04-13 07:30:00,59.5,51.6,29.88,WNW,292,4.7,4.7,75,0.00,CLR,,0.00,WeatherDisplay:10.37,2013-04-13 11:30:00,
2013-04-13 07:35:00,59.5,51.6,29.88,NNW,338,3.8,3.8,75,0.00,CLR,,0.00,WeatherDisplay:10.37,2013-04-13 11:35:00,
2013-04-13 07:41:00,60.3,52.3,29.88,West,270,5.8,5.8,75,0.00,CLR,,0.00,WeatherDisplay:10.37,2013-04-13 11:41:00,
2013-04-13 07:46:00,61.0,51.5,29.88,NW,315,7.4,7.4,71,0.00,CLR,,0.00,WeatherDisplay:10.37,2013-04-13 11:46:00,
2013-04-13 07:51:00,61.7,51.4,29.90,NNE,22,8.3,8.3,69,0.00,CLR,,0.00,WeatherDisplay:10.37,2013-04-13 11:51:00,
2013-04-13 07:57:00,62.2,50.7,29.90,NW,315,6.9,6.9,66,0.00,CLR,,0.00,WeatherDisplay:10.37,2013-04-13 11:57:00,
2013-04-13 08:03:00,61.9,51.2,29.90,NE,45,9.2,9.2,68,0.00,CLR,,0.00,WeatherDisplay:10.37,2013-04-13 12:03:00,
2013-04-13 08:08:00,62.4,51.3,29.90,ESE,112,10.4,10.4,67,0.00,CLR,,0.00,WeatherDisplay:10.37,2013-04-13 12:08:00,
2013-04-13 08:13:00,62.8,52.5,29.90,ENE,68,16.4,16.4,69,0.00,CLR,,0.00,WeatherDisplay:10.37,2013-04-13 12:13:00,
2013-04-13 08:18:00,63.0,54.2,29.91,ESE,112,12.8,12.8,73,0.00,CLR,,0.00,WeatherDisplay:10.37,2013-04-13 12:18:00,
2013-04-13 08:23:00,62.2,54.5,29.91,East,90,18.2,18.2,76,0.00,CLR,,0.00,WeatherDisplay:10.37,2013-04-13 12:23:00,
2013-04-13 08:28:00,62.2,54.5,29.92,East,90,18.4,18.4,76,0.00,CLR,,0.00,WeatherDisplay:10.37,2013-04-13 12:28:00,
2013-04-13 08:34:00,61.7,56.5,29.92,ESE,112,13.7,13.7,83,0.00,CLR,,0.00,WeatherDisplay:10.37,2013-04-13 12:34:00,
2013-04-13 08:39:00,61.7,57.1,29.92,ENE,68,11.5,11.5,85,0.00,CLR,,0.00,WeatherDisplay:10.37,2013-04-13 12:39:00,
2013-04-13 08:44:00,61.7,57.8,29.92,NE,45,15.0,15.0,87,0.00,CLR,,0.00,WeatherDisplay:10.37,2013-04-13 12:44:00,
2013-04-13 08:49:00,61.7,58.1,29.92,NNE,22,15.0,15.2,88,0.00,CLR,,0.00,WeatherDisplay:10.37,2013-04-13 12:49:00,
2013-04-13 08:54:00,61.5,58.2,29.92,ESE,112,19.6,19.6,89,0.00,CLR,,0.00,WeatherDisplay:10.37,2013-04-13 12:54:00,
2013-04-13 09:00:00,60.8,57.2,29.92,ENE,68,23.0,23.0,88,0.00,CLR,,0.00,WeatherDisplay:10.37,2013-04-13 13:00:00,
2013-04-13 09:05:00,60.3,56.7,29.93,ENE,68,21.9,21.9,88,0.00,CLR,,0.00,WeatherDisplay:10.37,2013-04-13 13:05:00,
2013-04-13 09:10:00,60.1,56.2,29.93,NNE,22,23.6,23.6,87,0.00,CLR,,0.00,WeatherDisplay:10.37,2013-04-13 13:10:00,
2013-04-13 09:15:00,60.1,56.2,29.93,ENE,68,23.0,23.0,87,0.00,CLR,,0.00,WeatherDisplay:10.37,2013-04-13 13:15:00,
2013-04-13 09:20:00,60.3,56.1,29.93,NNE,22,15.5,15.5,86,0.00,CLR,,0.00,WeatherDisplay:10.37,2013-04-13 13:20:00,
2013-04-13 09:26:00,60.4,55.5,29.94,ENE,68,21.9,21.9,84,0.00,CLR,,0.00,WeatherDisplay:10.37,2013-04-13 13:26:00,
2013-04-13 09:31:00,60.8,55.6,29.94,ESE,112,12.7,12.7,83,0.00,CLR,,0.00,WeatherDisplay:10.37,2013-04-13 13:31:00,
2013-04-13 09:37:00,61.2,54.3,29.94,East,90,18.2,18.2,78,0.00,CLR,,0.00,WeatherDisplay:10.37,2013-04-13 13:37:00,
2013-04-13 09:42:00,61.5,54.2,29.94,ESE,112,15.0,15.0,77,0.00,CLR,,0.00,WeatherDisplay:10.37,2013-04-13 13:42:00,
2013-04-13 09:48:00,61.7,54.4,29.82,NNE,22,7.8,-999.0,77,-99.99,,,0.00,Acu-Link.com,2013-04-13 13:48:00,
2013-04-13 09:53:00,62.4,53.6,29.94,NE,45,20.7,20.7,73,0.00,CLR,,0.00,WeatherDisplay:10.37,2013-04-13 13:53:00,
2013-04-13 09:58:00,62.4,53.3,29.94,NNE,22,20.0,20.0,72,0.00,CLR,,0.00,WeatherDisplay:10.37,2013-04-13 13:58:00,
2013-04-13 10:04:00,63.3,52.6,29.94,ENE,68,27.6,27.6,68,0.00,CLR,,0.00,WeatherDisplay:10.37,2013-04-13 14:04:00,
2013-04-13 10:09:00,63.9,53.1,29.94,ENE,68,19.1,19.1,68,0.00,CLR,,0.00,WeatherDisplay:10.37,2013-04-13 14:09:00,
2013-04-13 10:14:00,63.3,53.0,29.95,ENE,68,16.1,16.1,69,0.00,CLR,,0.00,WeatherDisplay:10.37,2013-04-13 14:14:00,
2013-04-13 10:19:00,64.2,53.4,29.95,ENE,68,15.0,15.0,68,0.00,CLR,,0.00,WeatherDisplay:10.37,2013-04-13 14:19:00,
2013-04-13 10:25:00,64.8,54.4,29.95,East,90,18.4,18.4,69,0.00,CLR,,0.00,WeatherDisplay:10.37,2013-04-13 14:25:00,
2013-04-13 10:30:00,64.2,53.4,29.96,ESE,112,17.3,17.3,68,0.00,CLR,,0.00,WeatherDisplay:10.37,2013-04-13 14:30:00,
2013-04-13 10:35:00,64.4,52.8,29.96,ESE,112,15.0,16.5,66,0.00,CLR,,0.00,WeatherDisplay:10.37,2013-04-13 14:35:00,
2013-04-13 10:40:00,65.3,54.9,29.96,East,90,11.5,11.5,69,0.00,CLR,,0.00,WeatherDisplay:10.37,2013-04-13 14:40:00,
2013-04-13 10:45:00,64.6,52.6,29.96,ESE,112,12.7,12.7,65,0.00,CLR,,0.00,WeatherDisplay:10.37,2013-04-13 14:45:00,
2013-04-13 10:50:00,64.9,52.4,29.96,East,90,24.5,24.5,64,0.00,CLR,,0.00,WeatherDisplay:10.37,2013-04-13 14:50:00,
2013-04-13 10:55:00,64.4,51.5,29.96,East,90,11.9,11.9,63,0.00,CLR,,0.00,WeatherDisplay:10.37,2013-04-13 14:55:00,
2013-04-13 11:01:00,65.5,52.1,29.96,ESE,112,20.7,20.7,62,0.00,CLR,,0.00,WeatherDisplay:10.37,2013-04-13 15:01:00,
2013-04-13 11:06:00,65.3,51.9,29.96,NE,45,20.9,20.9,62,0.00,CLR,,0.00,WeatherDisplay:10.37,2013-04-13 15:06:00,
2013-04-13 11:11:00,65.3,51.9,29.96,ESE,112,18.4,18.4,62,0.00,CLR,,0.00,WeatherDisplay:10.37,2013-04-13 15:11:00,
2013-04-13 11:17:00,64.9,51.6,29.96,ENE,68,21.8,21.8,62,0.00,CLR,,0.00,WeatherDisplay:10.37,2013-04-13 15:17:00,
2013-04-13 11:22:00,65.3,51.1,29.96,ESE,112,19.6,19.6,60,0.00,CLR,,0.00,WeatherDisplay:10.37,2013-04-13 15:22:00,
2013-04-13 11:28:00,65.5,51.2,29.97,East,90,19.6,19.6,60,0.00,CLR,,0.00,WeatherDisplay:10.37,2013-04-13 15:28:00,
2013-04-13 11:33:00,65.7,51.0,29.97,NNE,22,15.5,15.5,59,0.00,CLR,,0.00,WeatherDisplay:10.37,2013-04-13 15:33:00,
2013-04-13 11:38:00,65.7,51.0,29.97,NNE,22,15.5,15.5,59,0.00,CLR,,0.00,WeatherDisplay:10.37,2013-04-13 15:38:00,
2013-04-13 11:43:00,65.7,50.5,29.97,ESE,112,16.4,16.4,58,0.00,CLR,,0.00,WeatherDisplay:10.37,2013-04-13 15:43:00,
2013-04-13 11:48:00,66.9,51.2,29.97,NNE,22,17.3,17.3,57,0.00,CLR,,0.00,WeatherDisplay:10.37,2013-04-13 15:48:00,
2013-04-13 11:53:00,66.7,50.5,29.97,East,90,11.5,11.5,56,0.00,CLR,,0.00,WeatherDisplay:10.37,2013-04-13 15:53:00,
2013-04-13 11:58:00,66.4,51.2,29.97,East,90,11.5,11.5,58,0.00,CLR,,0.00,WeatherDisplay:10.37,2013-04-13 15:58:00,
2013-04-13 12:03:00,66.7,51.0,29.97,East,90,13.8,13.8,57,0.00,CLR,,0.00,WeatherDisplay:10.37,2013-04-13 16:03:00,
2013-04-13 12:08:00,66.2,50.0,29.97,NE,45,15.0,15.0,56,0.00,CLR,,0.00,WeatherDisplay:10.37,2013-04-13 16:08:00,
2013-04-13 12:13:00,66.2,49.6,29.97,SE,135,17.3,17.3,55,0.00,CLR,,0.00,WeatherDisplay:10.37,2013-04-13 16:13:00,
2013-04-13 12:19:00,65.8,49.7,29.97,ESE,112,16.4,16.4,56,0.00,CLR,,0.00,WeatherDisplay:10.37,2013-04-13 16:19:00,
2013-04-13 12:24:00,65.8,49.7,29.97,East,90,17.3,17.3,56,0.00,CLR,,0.00,WeatherDisplay:10.37,2013-04-13 16:24:00,
2013-04-13 12:29:00,66.7,50.0,29.97,SE,135,12.8,12.8,55,0.00,CLR,,0.00,WeatherDisplay:10.37,2013-04-13 16:29:00,
2013-04-13 12:34:00,66.7,49.0,29.85,ENE,67,7.8,-999.0,53,-99.99,,,0.00,Acu-Link.com,2013-04-13 16:34:00,
2013-04-13 12:39:00,66.7,50.5,29.97,East,90,15.0,15.0,56,0.00,CLR,,0.00,WeatherDisplay:10.37,2013-04-13 16:39:00,
2013-04-13 12:45:00,65.8,49.7,29.97,ENE,68,15.0,15.0,56,0.00,CLR,,0.00,WeatherDisplay:10.37,2013-04-13 16:45:00,
2013-04-13 12:50:00,66.2,49.6,29.97,ESE,112,18.4,18.4,55,0.00,CLR,,0.00,WeatherDisplay:10.37,2013-04-13 16:50:00,
2013-04-13 12:55:00,67.1,49.4,29.97,SE,135,11.5,11.5,53,0.00,CLR,,0.00,WeatherDisplay:10.37,2013-04-13 16:55:00,
2013-04-13 13:02:00,66.2,48.6,29.97,East,90,11.5,11.5,53,0.00,CLR,,0.00,WeatherDisplay:10.37,2013-04-13 17:02:00,
2013-04-13 13:07:00,66.0,48.4,29.98,ESE,112,19.6,19.6,53,0.00,CLR,,0.00,WeatherDisplay:10.37,2013-04-13 17:07:00,
2013-04-13 13:12:00,66.4,48.7,29.98,ENE,68,13.8,13.8,53,0.00,CLR,,0.00,WeatherDisplay:10.37,2013-04-13 17:12:00,
2013-04-13 13:17:00,66.7,49.0,29.98,East,90,9.2,9.2,53,0.00,CLR,,0.00,WeatherDisplay:10.37,2013-04-13 17:17:00,
2013-04-13 13:22:00,67.3,48.5,29.98,SSE,158,11.5,11.5,51,0.00,CLR,,0.00,WeatherDisplay:10.37,2013-04-13 17:22:00,
2013-04-13 13:28:00,68.2,49.4,29.97,East,90,10.4,10.4,51,0.00,CLR,,0.00,WeatherDisplay:10.37,2013-04-13 17:28:00,
2013-04-13 13:32:00,67.8,50.0,29.97,South,180,11.5,11.5,53,0.00,CLR,,0.00,WeatherDisplay:10.37,2013-04-13 17:32:00,
2013-04-13 13:38:00,68.2,49.4,29.97,ESE,112,11.5,11.5,51,0.00,CLR,,0.00,WeatherDisplay:10.37,2013-04-13 17:38:00,
2013-04-13 13:43:00,67.5,49.3,29.97,ESE,112,10.4,10.4,52,0.00,CLR,,0.00,WeatherDisplay:10.37,2013-04-13 17:43:00,
2013-04-13 13:48:00,67.8,49.5,29.97,ENE,68,10.4,10.4,52,0.00,CLR,,0.00,WeatherDisplay:10.37,2013-04-13 17:48:00,
2013-04-13 13:53:00,68.2,49.4,29.97,ENE,68,11.5,11.5,51,0.00,CLR,,0.00,WeatherDisplay:10.37,2013-04-13 17:53:00,
2013-04-13 13:58:00,68.4,50.6,29.97,South,180,11.5,11.5,53,0.00,CLR,,0.00,WeatherDisplay:10.37,2013-04-13 17:58:00,
2013-04-13 14:03:00,68.0,49.7,29.97,ENE,68,12.7,12.7,52,0.00,CLR,,0.00,WeatherDisplay:10.37,2013-04-13 18:03:00,
2013-04-13 14:08:00,68.0,50.2,29.97,South,180,11.5,11.5,53,0.00,CLR,,0.00,WeatherDisplay:10.37,2013-04-13 18:08:00,
2013-04-13 14:14:00,68.5,50.2,29.97,South,180,11.5,11.5,52,0.00,CLR,,0.00,WeatherDisplay:10.37,2013-04-13 18:14:00,
2013-04-13 14:19:00,68.7,50.4,29.97,SW,225,4.6,4.6,52,0.00,CLR,,0.00,WeatherDisplay:10.37,2013-04-13 18:19:00,
2013-04-13 14:24:00,68.4,50.1,29.97,SSE,158,8.1,8.1,52,0.00,CLR,,0.00,WeatherDisplay:10.37,2013-04-13 18:24:00,
2013-04-13 14:27:00,69.1,50.7,29.96,ENE,68,13.8,13.8,52,0.00,CLR,,0.00,WeatherDisplay:10.37,2013-04-13 18:27:00,
2013-04-13 14:32:00,69.4,51.0,29.96,ESE,112,9.2,9.2,52,0.00,CLR,,0.00,WeatherDisplay:10.37,2013-04-13 18:32:00,
2013-04-13 14:37:00,69.1,50.7,29.96,East,90,13.8,13.8,52,0.00,CLR,,0.00,WeatherDisplay:10.37,2013-04-13 18:37:00,
2013-04-13 14:42:00,70.3,52.4,29.96,South,180,3.5,3.5,53,0.00,CLR,,0.00,WeatherDisplay:10.37,2013-04-13 18:42:00,
2013-04-13 14:47:00,69.3,51.4,29.96,SE,135,12.7,12.7,53,0.00,CLR,,0.00,WeatherDisplay:10.37,2013-04-13 18:47:00,
2013-04-13 14:52:00,68.9,50.5,29.96,NE,45,15.0,15.0,52,0.00,CLR,,0.00,WeatherDisplay:10.37,2013-04-13 18:52:00,
2013-04-13 14:57:00,69.3,51.9,29.96,SE,135,9.2,9.2,54,0.00,CLR,,0.00,WeatherDisplay:10.37,2013-04-13 18:57:00,
2013-04-13 15:03:00,68.9,52.1,29.96,East,90,13.8,13.8,55,0.00,CLR,,0.00,WeatherDisplay:10.37,2013-04-13 19:03:00,
2013-04-13 15:08:00,68.7,51.9,29.96,East,90,11.5,11.5,55,0.00,CLR,,0.00,WeatherDisplay:10.37,2013-04-13 19:08:00,
2013-04-13 15:13:00,69.6,52.7,29.96,ESE,112,9.2,9.2,55,0.00,CLR,,0.00,WeatherDisplay:10.37,2013-04-13 19:13:00,
2013-04-13 15:18:00,68.5,51.7,29.96,ESE,112,11.5,11.5,55,0.00,CLR,,0.00,WeatherDisplay:10.37,2013-04-13 19:18:00,
2013-04-13 15:23:00,68.5,51.7,29.96,SW,225,11.5,11.5,55,0.00,CLR,,0.00,WeatherDisplay:10.37,2013-04-13 19:23:00,
2013-04-13 15:28:00,66.9,50.7,29.96,SE,135,5.8,5.8,56,0.00,CLR,,0.00,WeatherDisplay:10.37,2013-04-13 19:28:00,
2013-04-13 15:33:00,67.6,51.8,29.96,ESE,112,9.2,9.2,57,0.00,CLR,,0.00,WeatherDisplay:10.37,2013-04-13 19:33:00,
2013-04-13 15:38:00,67.5,51.2,29.96,South,180,8.1,8.1,56,0.00,CLR,,0.00,WeatherDisplay:10.37,2013-04-13 19:38:00,
2013-04-13 15:43:00,67.3,51.5,29.96,East,90,11.5,11.5,57,0.00,CLR,,0.00,WeatherDisplay:10.37,2013-04-13 19:43:00,
2013-04-13 15:48:00,68.5,51.7,29.96,SSE,158,13.8,13.8,55,0.00,CLR,,0.00,WeatherDisplay:10.37,2013-04-13 19:48:00,
2013-04-13 15:53:00,66.7,51.9,29.96,ESE,112,9.2,9.2,59,0.00,CLR,,0.00,WeatherDisplay:10.37,2013-04-13 19:53:00,
2013-04-13 15:58:00,67.1,51.8,29.96,East,90,14.6,14.6,58,0.00,CLR,,0.00,WeatherDisplay:10.37,2013-04-13 19:58:00,
2013-04-13 16:03:00,68.0,51.2,29.96,South,180,10.4,10.4,55,0.00,CLR,,0.00,WeatherDisplay:10.37,2013-04-13 20:03:00,
2013-04-13 16:08:00,67.6,50.9,29.96,ESE,112,9.2,9.2,55,0.00,CLR,,0.00,WeatherDisplay:10.37,2013-04-13 20:08:00,
2013-04-13 16:13:00,67.8,51.5,29.96,ESE,112,8.3,8.3,56,0.00,CLR,,0.00,WeatherDisplay:10.37,2013-04-13 20:13:00,
2013-04-13 16:18:00,67.8,52.0,29.95,ESE,112,6.5,6.5,57,0.00,CLR,,0.00,WeatherDisplay:10.37,2013-04-13 20:18:00,
2013-04-13 16:23:00,68.0,52.2,29.95,ESE,112,11.5,11.5,57,0.00,CLR,,0.00,WeatherDisplay:10.37,2013-04-13 20:23:00,
2013-04-13 16:28:00,67.6,51.8,29.95,ESE,112,5.8,5.8,57,0.00,CLR,,0.00,WeatherDisplay:10.37,2013-04-13 20:28:00,
2013-04-13 16:33:00,67.1,51.4,29.95,South,180,11.5,11.5,57,0.00,CLR,,0.00,WeatherDisplay:10.37,2013-04-13 20:33:00,
2013-04-13 16:38:00,66.9,51.2,29.95,SSW,202,15.0,15.0,57,0.00,CLR,,0.00,WeatherDisplay:10.37,2013-04-13 20:38:00,
2013-04-13 16:43:00,66.9,51.2,29.95,South,180,4.7,4.7,57,0.00,CLR,,0.00,WeatherDisplay:10.37,2013-04-13 20:43:00,
2013-04-13 16:48:00,66.2,50.5,29.95,ESE,112,9.2,9.2,57,0.00,CLR,,0.00,WeatherDisplay:10.37,2013-04-13 20:48:00,
2013-04-13 16:53:00,65.7,50.5,29.95,SE,135,9.2,9.2,58,0.00,CLR,,0.00,WeatherDisplay:10.37,2013-04-13 20:53:00,
2013-04-13 16:58:00,65.7,51.4,29.95,SE,135,9.2,9.2,60,0.00,CLR,,0.00,WeatherDisplay:10.37,2013-04-13 20:58:00,
2013-04-13 17:03:00,66.0,51.7,29.95,SE,135,5.6,5.6,60,0.00,CLR,,0.00,WeatherDisplay:10.37,2013-04-13 21:03:00,
2013-04-13 17:08:00,65.3,51.5,29.95,SSE,158,11.5,11.5,61,0.00,CLR,,0.00,WeatherDisplay:10.37,2013-04-13 21:08:00,
2013-04-13 17:13:00,64.9,51.6,29.96,SE,135,8.1,8.1,62,0.00,CLR,,0.00,WeatherDisplay:10.37,2013-04-13 21:13:00,
2013-04-13 17:18:00,65.3,51.9,29.96,SSE,158,4.7,4.7,62,0.00,CLR,,0.00,WeatherDisplay:10.37,2013-04-13 21:18:00,
2013-04-13 17:23:00,64.9,51.1,29.96,South,180,6.9,6.9,61,0.00,CLR,,0.00,WeatherDisplay:10.37,2013-04-13 21:23:00,
2013-04-13 17:28:00,64.8,51.0,29.96,East,90,15.0,15.0,61,0.00,CLR,,0.00,WeatherDisplay:10.37,2013-04-13 21:28:00,
2013-04-13 17:33:00,64.8,51.5,29.96,South,180,5.8,5.8,62,0.00,CLR,,0.00,WeatherDisplay:10.37,2013-04-13 21:33:00,
2013-04-13 17:38:00,65.1,51.3,29.96,ESE,112,4.6,4.6,61,0.00,CLR,,0.00,WeatherDisplay:10.37,2013-04-13 21:38:00,
2013-04-13 17:43:00,64.4,51.5,29.96,SE,135,9.2,9.2,63,0.00,CLR,,0.00,WeatherDisplay:10.37,2013-04-13 21:43:00,
2013-04-13 17:48:00,63.7,50.9,29.96,East,90,11.5,11.5,63,0.00,CLR,,0.00,WeatherDisplay:10.37,2013-04-13 21:48:00,
2013-04-13 17:53:00,63.3,50.5,29.96,ESE,112,8.3,8.3,63,0.00,CLR,,0.00,WeatherDisplay:10.37,2013-04-13 21:53:00,
2013-04-13 17:58:00,63.0,50.2,29.96,SE,135,10.4,10.4,63,0.00,CLR,,0.00,WeatherDisplay:10.37,2013-04-13 21:58:00,
2013-04-13 18:04:00,63.1,50.3,29.96,SSE,158,8.3,8.3,63,0.00,CLR,,0.00,WeatherDisplay:10.37,2013-04-13 22:04:00,
2013-04-13 18:09:00,63.1,50.7,29.96,NNE,22,4.6,4.6,64,0.00,CLR,,0.00,WeatherDisplay:10.37,2013-04-13 22:09:00,
2013-04-13 18:14:00,63.1,50.7,29.97,ESE,112,8.1,8.1,64,0.00,CLR,,0.00,WeatherDisplay:10.37,2013-04-13 22:14:00,
2013-04-13 18:19:00,62.6,50.2,29.97,NE,45,8.3,8.3,64,0.00,CLR,,0.00,WeatherDisplay:10.37,2013-04-13 22:19:00,
2013-04-13 18:24:00,62.2,49.4,29.97,East,90,10.4,10.4,63,0.00,CLR,,0.00,WeatherDisplay:10.37,2013-04-13 22:24:00,
2013-04-13 18:29:00,62.2,50.3,29.97,South,180,5.8,5.8,65,0.00,CLR,,0.00,WeatherDisplay:10.37,2013-04-13 22:29:00,
2013-04-13 18:34:00,62.1,50.2,29.97,SSE,158,5.8,5.8,65,0.00,CLR,,0.00,WeatherDisplay:10.37,2013-04-13 22:34:00,
2013-04-13 18:39:00,61.7,50.2,29.97,ESE,112,5.8,5.8,66,0.00,CLR,,0.00,WeatherDisplay:10.37,2013-04-13 22:39:00,
2013-04-13 18:44:00,61.5,49.6,29.97,ESE,112,5.6,5.6,65,0.00,CLR,,0.00,WeatherDisplay:10.37,2013-04-13 22:44:00,
2013-04-13 18:49:00,61.0,49.1,29.97,East,90,6.9,6.9,65,0.00,CLR,,0.00,WeatherDisplay:10.37,2013-04-13 22:49:00,
2013-04-13 18:54:00,60.6,48.8,29.97,ESE,112,11.5,11.5,65,0.00,CLR,,0.00,WeatherDisplay:10.37,2013-04-13 22:54:00,
2013-04-13 18:59:00,60.4,48.6,29.97,East,90,4.7,4.7,65,0.00,CLR,,0.00,WeatherDisplay:10.37,2013-04-13 22:59:00,
2013-04-13 19:04:00,60.1,48.3,29.97,SE,135,5.8,5.8,65,0.00,CLR,,0.00,WeatherDisplay:10.37,2013-04-13 23:04:00,
2013-04-13 19:09:00,59.7,48.7,29.97,SW,225,4.6,4.6,67,0.00,CLR,,0.00,WeatherDisplay:10.37,2013-04-13 23:09:00,
2013-04-13 19:14:00,59.4,48.0,29.98,SSE,158,8.1,8.1,66,0.00,CLR,,0.00,WeatherDisplay:10.37,2013-04-13 23:14:00,
2013-04-13 19:19:00,59.0,47.7,29.98,SSE,158,8.3,8.3,66,0.00,CLR,,0.00,WeatherDisplay:10.37,2013-04-13 23:19:00,
2013-04-13 19:24:00,58.6,47.7,29.98,NE,45,4.6,4.6,67,0.00,CLR,,0.00,WeatherDisplay:10.37,2013-04-13 23:24:00,
2013-04-13 19:29:00,58.6,48.1,29.98,SE,135,3.5,3.5,68,0.00,CLR,,0.00,WeatherDisplay:10.37,2013-04-13 23:29:00,
2013-04-13 19:34:00,58.1,47.6,29.98,ESE,112,6.9,6.9,68,0.00,CLR,,0.00,WeatherDisplay:10.37,2013-04-13 23:34:00,
2013-04-13 19:39:00,57.9,47.0,29.98,SSE,158,5.8,5.8,67,0.00,CLR,,0.00,WeatherDisplay:10.37,2013-04-13 23:39:00,
2013-04-13 19:44:00,57.6,47.1,29.98,ESE,112,5.8,5.8,68,0.00,CLR,,0.00,WeatherDisplay:10.37,2013-04-13 23:44:00,
2013-04-13 19:49:00,57.4,47.7,29.98,South,180,3.5,3.5,70,0.00,CLR,,0.00,WeatherDisplay:10.37,2013-04-13 23:49:00,
2013-04-13 19:54:00,57.2,47.9,29.99,ESE,112,3.5,3.5,71,0.00,CLR,,0.00,WeatherDisplay:10.37,2013-04-13 23:54:00,
2013-04-13 19:59:00,56.8,47.5,29.99,SSW,202,4.6,4.6,71,0.00,CLR,,0.00,WeatherDisplay:10.37,2013-04-13 23:59:00,
2013-04-13 20:04:00,56.7,47.8,29.99,ESE,112,3.5,0.0,72,0.00,CLR,,0.00,WeatherDisplay:10.37,2013-04-14 00:04:00,
2013-04-13 20:09:00,56.7,47.4,29.99,East,90,3.5,3.5,71,0.00,CLR,,0.00,WeatherDisplay:10.37,2013-04-14 00:09:00,
2013-04-13 20:14:00,56.7,47.4,29.99,SSE,158,3.5,3.5,71,0.00,CLR,,0.00,WeatherDisplay:10.37,2013-04-14 00:14:00,
2013-04-13 20:19:00,56.3,47.4,30.00,SSE,158,0.0,0.0,72,0.00,CLR,,0.00,WeatherDisplay:10.37,2013-04-14 00:19:00,
2013-04-13 20:24:00,56.3,47.8,30.00,SSE,158,0.0,0.0,73,0.00,CLR,,0.00,WeatherDisplay:10.37,2013-04-14 00:24:00,
2013-04-13 20:29:00,55.9,47.4,30.00,SSE,158,0.0,0.0,73,0.00,CLR,,0.00,WeatherDisplay:10.37,2013-04-14 00:29:00,
2013-04-13 20:34:00,55.6,47.4,30.00,SSE,158,0.0,0.0,74,0.00,CLR,,0.00,WeatherDisplay:10.37,2013-04-14 00:34:00,
2013-04-13 20:39:00,55.4,47.6,30.00,SSE,158,0.0,0.0,75,0.00,CLR,,0.00,WeatherDisplay:10.37,2013-04-14 00:39:00,
2013-04-13 20:44:00,55.0,47.6,30.00,SSE,158,0.0,0.0,76,0.00,CLR,,0.00,WeatherDisplay:10.37,2013-04-14 00:44:00,
2013-04-13 20:49:00,54.7,48.0,30.00,SSE,158,0.0,0.0,78,0.00,CLR,,0.00,WeatherDisplay:10.37,2013-04-14 00:49:00,
2013-04-13 20:54:00,54.3,47.9,30.01,SSE,158,0.0,0.0,79,0.00,CLR,,0.00,WeatherDisplay:10.37,2013-04-14 00:54:00,
2013-04-13 20:59:00,54.1,47.7,30.01,SSE,158,0.0,0.0,79,0.00,CLR,,0.00,WeatherDisplay:10.37,2013-04-14 00:59:00,
2013-04-13 21:04:00,54.0,48.0,30.01,SSE,158,0.0,0.0,80,0.00,CLR,,0.00,WeatherDisplay:10.37,2013-04-14 01:04:00,
2013-04-13 21:09:00,53.6,47.6,30.01,SSE,158,0.0,0.0,80,0.00,CLR,,0.00,WeatherDisplay:10.37,2013-04-14 01:09:00,
2013-04-13 21:14:00,53.1,47.7,30.02,SSE,158,0.0,0.0,82,0.00,CLR,,0.00,WeatherDisplay:10.37,2013-04-14 01:14:00,
2013-04-13 21:19:00,53.1,48.1,30.02,SSE,158,0.0,0.0,83,0.00,CLR,,0.00,WeatherDisplay:10.37,2013-04-14 01:19:00,
2013-04-13 21:24:00,52.7,47.4,30.02,SSE,158,0.0,0.0,82,0.00,CLR,,0.00,WeatherDisplay:10.37,2013-04-14 01:24:00,
2013-04-13 21:29:00,52.5,47.5,30.02,SSE,158,0.0,0.0,83,0.00,CLR,,0.00,WeatherDisplay:10.37,2013-04-14 01:29:00,
2013-04-13 21:34:00,52.2,47.2,30.02,SSE,158,0.0,0.0,83,0.00,CLR,,0.00,WeatherDisplay:10.37,2013-04-14 01:34:00,
2013-04-13 21:39:00,52.0,47.6,30.02,SSE,158,0.0,0.0,85,0.00,CLR,,0.00,WeatherDisplay:10.37,2013-04-14 01:39:00,
2013-04-13 21:44:00,51.6,47.2,30.02,SSE,158,0.0,0.0,85,0.00,CLR,,0.00,WeatherDisplay:10.37,2013-04-14 01:44:00,
2013-04-13 21:49:00,51.4,47.0,30.02,SSE,158,0.0,0.0,85,0.00,CLR,,0.00,WeatherDisplay:10.37,2013-04-14 01:49:00,
2013-04-13 21:54:00,51.4,47.4,30.02,SSE,158,0.0,0.0,86,0.00,CLR,,0.00,WeatherDisplay:10.37,2013-04-14 01:54:00,
2013-04-13 21:59:00,51.1,47.4,30.02,SSE,158,0.0,0.0,87,0.00,CLR,,0.00,WeatherDisplay:10.37,2013-04-14 01:59:00,
2013-04-13 22:04:00,51.1,47.4,30.02,SSE,158,0.0,0.0,87,0.00,CLR,,0.00,WeatherDisplay:10.37,2013-04-14 02:04:00,
2013-04-13 22:09:00,50.9,47.2,30.02,SSE,158,0.0,0.0,87,0.00,CLR,,0.00,WeatherDisplay:10.37,2013-04-14 02:09:00,
2013-04-13 22:14:00,50.7,47.3,30.03,SSE,158,0.0,0.0,88,0.00,CLR,,0.00,WeatherDisplay:10.37,2013-04-14 02:14:00,
2013-04-13 22:19:00,50.5,47.4,30.03,SSE,158,0.0,0.0,89,0.00,CLR,,0.00,WeatherDisplay:10.37,2013-04-14 02:19:00,
2013-04-13 22:24:00,50.4,47.3,30.03,SSE,158,0.0,0.0,89,0.00,CLR,,0.00,WeatherDisplay:10.37,2013-04-14 02:24:00,
2013-04-13 22:30:00,50.4,47.6,30.03,SSE,158,0.0,0.0,90,0.00,CLR,,0.00,WeatherDisplay:10.37,2013-04-14 02:30:00,
2013-04-13 22:35:00,50.4,47.6,30.03,SSE,158,0.0,0.0,90,0.00,CLR,,0.00,WeatherDisplay:10.37,2013-04-14 02:35:00,
2013-04-13 22:40:00,50.4,47.6,30.03,SSE,158,0.0,0.0,90,0.00,CLR,,0.00,WeatherDisplay:10.37,2013-04-14 02:40:00,
2013-04-13 22:45:00,50.2,47.7,30.03,SSE,158,0.0,0.0,91,0.00,CLR,,0.00,WeatherDisplay:10.37,2013-04-14 02:45:00,
2013-04-13 22:50:00,50.2,49.7,30.03,SSE,158,0.0,0.0,98,0.00,CLR,,0.00,WeatherDisplay:10.37,2013-04-14 02:50:00,
2013-04-13 22:55:00,50.2,49.7,30.03,SSE,158,0.0,0.0,98,0.00,CLR,,0.00,WeatherDisplay:10.37,2013-04-14 02:55:00,
2013-04-13 23:00:00,50.2,49.7,30.03,SSE,158,0.0,0.0,98,0.00,CLR,,0.00,WeatherDisplay:10.37,2013-04-14 03:00:00,
2013-04-13 23:05:00,50.0,49.5,30.04,SSE,158,0.0,0.0,98,0.00,CLR,,0.00,WeatherDisplay:10.37,2013-04-14 03:05:00,
2013-04-13 23:10:00,50.0,49.5,30.04,SSE,158,0.0,0.0,98,0.00,CLR,,0.00,WeatherDisplay:10.37,2013-04-14 03:10:00,
2013-04-13 23:15:00,49.8,49.3,30.04,SSE,158,0.0,0.0,98,0.00,CLR,,0.00,WeatherDisplay:10.37,2013-04-14 03:15:00,
2013-04-13 23:20:00,49.8,49.3,30.04,SSE,158,0.0,0.0,98,0.00,CLR,,0.00,WeatherDisplay:10.37,2013-04-14 03:20:00,
2013-04-13 23:25:00,49.6,49.1,30.04,SSE,158,0.0,0.0,98,0.00,CLR,,0.00,WeatherDisplay:10.37,2013-04-14 03:25:00,
2013-04-13 23:30:00,49.5,49.0,30.04,SSE,158,0.0,0.0,98,0.00,CLR,,0.00,WeatherDisplay:10.37,2013-04-14 03:30:00,
2013-04-13 23:35:00,49.3,48.8,30.04,SSE,158,0.0,0.0,98,0.00,CLR,,0.00,WeatherDisplay:10.37,2013-04-14 03:35:00,
2013-04-13 23:40:00,49.3,48.8,30.05,SSE,158,0.0,0.0,98,0.00,CLR,,0.00,WeatherDisplay:10.37,2013-04-14 03:40:00,
2013-04-13 23:45:00,49.3,48.8,30.05,SSE,158,0.0,0.0,98,0.00,CLR,,0.00,WeatherDisplay:10.37,2013-04-14 03:45:00,
2013-04-13 23:50:00,49.3,48.8,30.05,SSE,158,0.0,0.0,98,0.00,CLR,,0.00,WeatherDisplay:10.37,2013-04-14 03:50:00,
2013-04-13 23:55:00,49.1,48.6,30.04,SSE,158,0.0,0.0,98,0.00,CLR,,0.00,WeatherDisplay:10.37,2013-04-14 03:55:00,